• Join FlightAware (Why Join?)
  • Login
  • US Flag 
09:33PM EST


 

Airport Tracker/Info


-or-


 

Live Flight TrackerFlight Track Log ✈ UCA5001 ✈ 09-May-2013 ✈ KIAD - KROA

Flight Track Log - Related Links

Times and Time Zones

All times are in EDT time to prevent confusion due to time zone crossing. See the UCA5001 flight status page for this flight to view local times or setup timezone preferences in your user account.

Time Position Orientation Groundspeed Altitude Reporting Facility
EDT Latitude Longitude Course Direction KTS MPH feet Rate Location/Type
03:36PM 38.9167 -77.5333 223° Southwest 149 171 2,700  Level Potomac TRACON
03:37PM 38.8833 -77.5833 229° Southwest 190 219 3,000 1,200 Climbing Potomac TRACON
03:38PM 38.8500 -77.6333 229° Southwest 181 208 5,200 1,860 Climbing Potomac TRACON
03:39PM 38.8058 -77.6747 216° Southwest 173 199 6,800 1,140 Climbing Washington Center
03:40PM 38.7675 -77.7217 224° Southwest 193 222 7,500 1,440 Climbing Washington Center
03:41PM 38.6945 -77.7799 223° Southwest  Level FlightAware Approximate
03:41PM 38.7269 -77.7658 220° Southwest 198 228 9,700  Level Washington Center
03:42PM 38.6886 -77.8072 220° Southwest 192 221 11,500 1,620 Climbing Washington Center
03:43PM 38.6544 -77.8486 223° Southwest 187 215 13,000 1,200 Climbing Washington Center
03:44PM 38.6225 -77.8956 229° Southwest 182 209 14,000 420 Climbing Washington Center
03:45PM 38.5856 -77.9633 235° Southwest 200 230 13,900  Descending Washington Center
03:46PM 38.5447 -78.0339 234° Southwest 233 268 14,100 60 Climbing Washington Center
03:47PM 38.4994 -78.1067 232° Southwest 257 296 14,100  Level Washington Center
03:48PM 38.4539 -78.1794 231° Southwest 268 308 14,100  Level Washington Center
03:49PM 38.4128 -78.2522 234° Southwest 268 308 14,100  Level Washington Center
03:50PM 38.3697 -78.3194 231° Southwest 263 303 14,100  Level Washington Center
03:51PM 38.3283 -78.3867 232° Southwest 258 297 14,100  Level Washington Center
03:52PM 38.2892 -78.4539 233° Southwest 253 291 14,100  Level Washington Center
03:53PM 38.2481 -78.5186 231° Southwest 240 276 14,100  Level Washington Center
03:54PM 38.2089 -78.5883 234° Southwest 245 282 14,100 -240 Level Washington Center
03:55PM 38.1633 -78.6578 230° Southwest 245 282 13,700 -540 Descending Washington Center
03:56PM 38.1219 -78.7247 232° Southwest 254 292 13,100 -660 Descending Washington Center
03:57PM 38.0761 -78.7994 232° Southwest 265 305 12,500 -600 Descending Washington Center
03:58PM 38.0306 -78.8714 231° Southwest 270 311 12,000 -300 Descending Washington Center
03:59PM 37.9867 -78.9431 232° Southwest 270 311 12,000  Level Washington Center
04:00PM 37.9367 -79.0225 231° Southwest 270 311 12,000  Level Washington Center
04:01PM 37.8908 -79.0914 230° Southwest 270 311 12,000  Level Washington Center
04:02PM 37.8469 -79.1631 232° Southwest 270 311 12,000  Level Washington Center
04:03PM 37.8031 -79.2319 231° Southwest 265 305 12,100  Climbing Washington Center
04:04PM 37.7636 -79.2958 232° Southwest 265 305 12,100 -60 Level Washington Center
04:05PM 37.7133 -79.3694 229° Southwest 265 305 12,000 -240 Descending Washington Center
04:06PM 37.6739 -79.4331 232° Southwest 265 305 11,700 -600 Descending Washington Center
04:07PM 37.6233 -79.5092 230° Southwest 265 305 10,900 -1,140 Descending Washington Center
04:08PM 37.5756 -79.5644 223° Southwest 265 305 9,500 -1,440 Descending Washington Center
04:09PM 37.5236 -79.6244 223° Southwest 245 282 8,100 -1,080 Descending Washington Center
04:10PM 37.4781 -79.6744 221° Southwest 245 282 7,400 -780 Descending Washington Center
04:11PM 37.4281 -79.7372 225° Southwest 245 282 6,600 -840 Descending Washington Center
04:12PM 37.3800 -79.7972 225° Southwest 246 283 5,800 -1,200 Descending Washington Center
04:13PM 37.3406 -79.8525 228° Southwest 231 266 4,300 -1,380 Descending Washington Center
04:14PM 37.3056 -79.8975 226° Southwest 217 250 3,100 -1,200 Descending Washington Center